»·PEaware :: USC81 KEGE-KBZN

USC81 :: KEGE-KBZN

FLIGHT INFORMATION

Flight Status: Arrived
Operator: Unknown
More flights by this operator :: More flights under this callsign
Pilot: Andy P. (22680)
Aircraft: GATES LEARJET LEARJET 35/36
(LJ35)
More flights by this aircraft type
Origin: KEGE Eagle Co Regl
United States
Destination: KBZN Gallatin
United States
More flights between these airports :: More routes between these airports
Route: BEVVR1 SPRKT BPI JAC BRIGR
File this flight plan on PilotEdge
Remarks:
Altitude:
(Current/Filed)
30,000ft
Speed:
(Current/Filed)
465kts
Departed: 17-Oct-20 04:39 PM
Arrived: 17-Oct-20 06:02 PM
Distance/Time
Traveled:
412nm/1:23
Distance/Time
To Go:
Arrived

Flight Plot

Page will automatically refresh every two minutes.

Flight plan parsing failed; only flown route is shown


Map Options




Map Legend


Flown Route
Filed Route
Departure Airport
Arrival Airport
Navaid (VOR, NDB)
Fix

Horizontal Profiles

Position Reports

Time Latitude Longitude Heading Altitude Ground
Speed
17-Oct-20 16:20 39.641819 -106.905914 248 6517ft 0kts
17-Oct-20 16:21 39.641819 -106.905914 248 6517ft 0kts
17-Oct-20 16:22 39.641819 -106.905914 248 6517ft 0kts
17-Oct-20 16:23 39.641819 -106.905914 248 6517ft 0kts
17-Oct-20 16:24 39.641819 -106.905914 248 6517ft 0kts
17-Oct-20 16:25 39.641819 -106.905914 248 6517ft 0kts
17-Oct-20 16:26 39.641819 -106.905914 248 6517ft 0kts
17-Oct-20 16:27 39.641819 -106.905914 248 6517ft 0kts
17-Oct-20 16:28 39.641819 -106.905914 248 6517ft 0kts
17-Oct-20 16:29 39.641819 -106.905914 248 6517ft 0kts
17-Oct-20 16:30 39.641819 -106.905914 248 6517ft 0kts
17-Oct-20 16:31 39.641819 -106.905914 248 6517ft 0kts
17-Oct-20 16:32 39.641819 -106.905914 248 6517ft 0kts
17-Oct-20 16:33 39.641819 -106.905914 248 6517ft 0kts
17-Oct-20 16:34 39.641819 -106.905914 248 6517ft 0kts
17-Oct-20 16:35 39.641819 -106.905914 248 6517ft 0kts
17-Oct-20 16:36 39.642534 -106.906287 26 6517ft 11kts
17-Oct-20 16:37 39.643421 -106.900485 65 6517ft 13kts
17-Oct-20 16:38 39.642893 -106.914495 261 6518ft 134kts
17-Oct-20 16:39 39.616286 -106.961563 210 8828ft 193kts
17-Oct-20 16:40 39.581915 -107.010578 274 11590ft 221kts
17-Oct-20 16:41 39.600060 -107.082854 315 14865ft 226kts
17-Oct-20 16:42 39.660516 -107.101866 3 18226ft 256kts
17-Oct-20 16:43 39.723032 -107.108206 318 20984ft 229kts
17-Oct-20 16:44 39.773294 -107.163721 299 22620ft 260kts
17-Oct-20 16:45 39.813522 -107.247057 306 25088ft 277kts
17-Oct-20 16:46 39.858124 -107.330262 305 27511ft 283kts
17-Oct-20 16:47 39.902818 -107.416196 306 29526ft 288kts
17-Oct-20 16:48 39.949682 -107.506791 305 30124ft 324kts
17-Oct-20 16:49 40.021824 -107.587205 321 30105ft 361kts
17-Oct-20 16:50 40.105939 -107.666681 321 30091ft 380kts
17-Oct-20 16:51 40.191550 -107.747440 321 30077ft 380kts
17-Oct-20 16:52 40.277260 -107.828504 321 30065ft 380kts
17-Oct-20 16:53 40.363031 -107.909877 321 30065ft 379kts
17-Oct-20 16:54 40.448399 -107.991129 321 30065ft 379kts
17-Oct-20 16:55 40.533970 -108.072837 321 30064ft 379kts
17-Oct-20 16:56 40.619340 -108.154615 321 30063ft 380kts
17-Oct-20 16:57 40.704670 -108.236620 321 30062ft 380kts
17-Oct-20 16:58 40.790217 -108.319102 321 30045ft 381kts
17-Oct-20 16:59 40.875746 -108.401836 321 30044ft 380kts
17-Oct-20 17:00 40.961204 -108.484772 321 30045ft 380kts
17-Oct-20 17:01 41.046410 -108.567738 321 30048ft 380kts
17-Oct-20 17:02 41.131492 -108.650857 321 30053ft 380kts
17-Oct-20 17:03 41.216621 -108.734296 321 30058ft 380kts
17-Oct-20 17:04 41.301444 -108.817713 321 30057ft 380kts
17-Oct-20 17:05 41.386347 -108.901485 321 30065ft 379kts
17-Oct-20 17:06 41.471078 -108.985367 321 30072ft 379kts
17-Oct-20 17:07 41.555867 -109.069587 321 30124ft 379kts
17-Oct-20 17:08 41.640424 -109.153863 321 30122ft 380kts
17-Oct-20 17:09 41.725376 -109.238814 321 30120ft 380kts
17-Oct-20 17:10 41.810082 -109.323807 320 30114ft 381kts
17-Oct-20 17:11 41.894816 -109.409118 320 30110ft 381kts
17-Oct-20 17:12 41.979748 -109.494919 320 30111ft 382kts
17-Oct-20 17:13 42.064731 -109.581067 320 30112ft 381kts
17-Oct-20 17:14 42.149182 -109.666970 320 30112ft 381kts
17-Oct-20 17:15 42.233811 -109.753354 320 30112ft 381kts
17-Oct-20 17:16 42.318284 -109.839873 320 30130ft 380kts
17-Oct-20 17:17 42.402491 -109.926424 320 30132ft 380kts
17-Oct-20 17:18 42.486646 -110.013217 320 30132ft 380kts
17-Oct-20 17:19 42.571442 -110.099202 324 30132ft 381kts
17-Oct-20 17:20 42.668020 -110.161235 331 30133ft 385kts
17-Oct-20 17:21 42.766326 -110.219225 331 30133ft 384kts
17-Oct-20 17:22 42.864349 -110.277212 331 30115ft 383kts
17-Oct-20 17:23 42.961902 -110.335116 331 30115ft 382kts
17-Oct-20 17:24 43.059219 -110.393082 331 30115ft 380kts
17-Oct-20 17:25 43.155852 -110.450841 331 30111ft 378kts
17-Oct-20 17:26 43.252244 -110.508653 331 30101ft 377kts
17-Oct-20 17:27 43.348016 -110.566294 331 30090ft 376kts
17-Oct-20 17:28 43.436508 -110.619732 331 30081ft 375kts
17-Oct-20 17:29 43.532139 -110.677675 331 30075ft 374kts
17-Oct-20 17:30 43.628070 -110.732669 336 30074ft 376kts
17-Oct-20 17:31 43.730220 -110.769606 339 30075ft 379kts
17-Oct-20 17:32 43.832121 -110.805302 339 30075ft 378kts
17-Oct-20 17:33 43.934411 -110.841190 339 30078ft 378kts
17-Oct-20 17:34 44.036189 -110.877004 338 30080ft 376kts
17-Oct-20 17:36 44.137521 -110.912793 338 30079ft 374kts
17-Oct-20 17:37 44.238350 -110.948536 338 30079ft 373kts
17-Oct-20 17:38 44.338845 -110.984282 338 30076ft 372kts
17-Oct-20 17:39 44.439185 -111.020101 338 30067ft 372kts
17-Oct-20 17:40 44.528341 -111.052034 338 30060ft 372kts
17-Oct-20 17:41 44.628631 -111.088074 338 30054ft 371kts
17-Oct-20 17:42 44.728563 -111.124113 338 29986ft 368kts
17-Oct-20 17:43 44.826879 -111.159665 338 28074ft 362kts
17-Oct-20 17:44 44.924116 -111.195017 338 26302ft 362kts
17-Oct-20 17:45 45.024117 -111.231534 338 24511ft 380kts
17-Oct-20 17:46 45.128064 -111.269530 338 22638ft 386kts
17-Oct-20 17:47 45.232198 -111.307754 338 20757ft 386kts
17-Oct-20 17:48 45.333543 -111.345076 338 18930ft 368kts
17-Oct-20 17:49 45.431837 -111.381449 338 17159ft 360kts
17-Oct-20 17:50 45.527736 -111.417074 339 15432ft 356kts
17-Oct-20 17:50 45.600294 -111.444112 339 14125ft 361kts
17-Oct-20 17:52 45.703846 -111.493448 335 12197ft 279kts
17-Oct-20 17:53 45.774465 -111.512139 352 10945ft 251kts
17-Oct-20 17:54 45.843523 -111.502408 11 9741ft 249kts
17-Oct-20 17:55 45.907359 -111.466237 28 8544ft 245kts
17-Oct-20 17:55 45.947994 -111.413717 70 7983ft 233kts
17-Oct-20 17:57 45.909885 -111.338820 140 7691ft 218kts
17-Oct-20 17:57 45.874045 -111.287721 132 6853ft 219kts
17-Oct-20 17:58 45.836596 -111.234433 135 5737ft 152kts
17-Oct-20 17:59 45.807734 -111.193880 134 5026ft 140kts
17-Oct-20 18:00 45.781538 -111.157348 136 4474ft 72kts
17-Oct-20 18:01 45.776461 -111.154416 136 4474ft 20kts
17-Oct-20 18:02 45.774330 -111.154089 132 4474ft 0kts

Navigation Log

Ident Type
Flight plan parsing failed, navigation log unavailable